sensor_id;sensor_type;location;lat;lon;timestamp;pressure;altitude;pressure_sealevel;temperature;humidity
44127;BME280;29786;50.798;7.302;2023-04-07T00:09:35;99020;;;7.57;100
44127;BME280;29786;50.798;7.302;2023-04-07T00:14:32;99020;;;7.76;100
44127;BME280;29786;50.798;7.302;2023-04-07T00:19:28;99020;;;7.64;100
44127;BME280;29786;50.798;7.302;2023-04-07T00:24:25;99010;;;7.66;100
44127;BME280;29786;50.798;7.302;2023-04-07T00:30:35;99010;;;7.61;100
44127;BME280;29786;50.798;7.302;2023-04-07T00:35:32;99010;;;7.71;100
44127;BME280;29786;50.798;7.302;2023-04-07T00:40:28;99000;;;7.72;100
44127;BME280;29786;50.798;7.302;2023-04-07T00:45:25;99000;;;7.74;100
44127;BME280;29786;50.798;7.302;2023-04-07T00:51:36;98990;;;7.74;100
44127;BME280;29786;50.798;7.302;2023-04-07T00:56:32;98990;;;7.73;100
44127;BME280;29786;50.798;7.302;2023-04-07T01:01:31;98990;;;7.81;100
44127;BME280;29786;50.798;7.302;2023-04-07T01:06:27;98980;;;7.67;100
44127;BME280;29786;50.798;7.302;2023-04-07T01:12:46;98980;;;7.69;100
44127;BME280;29786;50.798;7.302;2023-04-07T01:17:33;98980;;;7.59;100
44127;BME280;29786;50.798;7.302;2023-04-07T01:22:35;98980;;;7.64;100
44127;BME280;29786;50.798;7.302;2023-04-07T01:33:36;98970;;;7.76;100
44127;BME280;29786;50.798;7.302;2023-04-07T01:38:33;98960;;;7.68;100
44127;BME280;29786;50.798;7.302;2023-04-07T01:43:30;98970;;;7.67;100
44127;BME280;29786;50.798;7.302;2023-04-07T01:48:26;98960;;;7.79;100
44127;BME280;29786;50.798;7.302;2023-04-07T01:54:36;98970;;;7.66;100
44127;BME280;29786;50.798;7.302;2023-04-07T01:59:33;98960;;;7.75;100
44127;BME280;29786;50.798;7.302;2023-04-07T02:04:31;98960;;;7.77;100
44127;BME280;29786;50.798;7.302;2023-04-07T02:09:26;98960;;;7.91;100
44127;BME280;29786;50.798;7.302;2023-04-07T02:15:37;98950;;;7.87;100
44127;BME280;29786;50.798;7.302;2023-04-07T02:20:34;98950;;;7.97;100
44127;BME280;29786;50.798;7.302;2023-04-07T02:25:31;98960;;;8.04;100
44127;BME280;29786;50.798;7.302;2023-04-07T02:30:27;98960;;;8.02;100
44127;BME280;29786;50.798;7.302;2023-04-07T02:36:37;98960;;;7.73;100
44127;BME280;29786;50.798;7.302;2023-04-07T02:41:33;98960;;;7.76;100
44127;BME280;29786;50.798;7.302;2023-04-07T02:46:30;98960;;;7.98;100
44127;BME280;29786;50.798;7.302;2023-04-07T02:51:27;98960;;;7.78;100
44127;BME280;29786;50.798;7.302;2023-04-07T02:57:37;98960;;;7.99;100
44127;BME280;29786;50.798;7.302;2023-04-07T03:02:34;98960;;;7.83;100
44127;BME280;29786;50.798;7.302;2023-04-07T03:07:30;98960;;;7.97;100
44127;BME280;29786;50.798;7.302;2023-04-07T03:12:27;98960;;;7.72;100
44127;BME280;29786;50.798;7.302;2023-04-07T03:18:37;98960;;;7.79;100
44127;BME280;29786;50.798;7.302;2023-04-07T03:23:34;98960;;;7.73;100
44127;BME280;29786;50.798;7.302;2023-04-07T03:28:31;98940;;;7.56;100
44127;BME280;29786;50.798;7.302;2023-04-07T03:33:27;98960;;;7.63;100
44127;BME280;29786;50.798;7.302;2023-04-07T03:39:38;98960;;;7.46;100
44127;BME280;29786;50.798;7.302;2023-04-07T03:44:34;98970;;;7.38;100
44127;BME280;29786;50.798;7.302;2023-04-07T03:49:31;98940;;;7.17;100
44127;BME280;29786;50.798;7.302;2023-04-07T03:54:27;98960;;;7.22;100
44127;BME280;29786;50.798;7.302;2023-04-07T03:59:24;98960;;;7.12;100
44127;BME280;29786;50.798;7.302;2023-04-07T04:05:35;98960;;;7.11;100
44127;BME280;29786;50.798;7.302;2023-04-07T04:10:31;98960;;;7.08;100
44127;BME280;29786;50.798;7.302;2023-04-07T04:15:28;98970;;;7.1;100
44127;BME280;29786;50.798;7.302;2023-04-07T04:20:24;98980;;;7.12;100
44127;BME280;29786;50.798;7.302;2023-04-07T04:26:35;98980;;;7.15;100
44127;BME280;29786;50.798;7.302;2023-04-07T04:31:31;98990;;;7.1;100
44127;BME280;29786;50.798;7.302;2023-04-07T04:36:28;98980;;;7.14;100
44127;BME280;29786;50.798;7.302;2023-04-07T04:41:24;98980;;;7.15;100
44127;BME280;29786;50.798;7.302;2023-04-07T04:47:35;98990;;;7.18;100
44127;BME280;29786;50.798;7.302;2023-04-07T04:52:32;98990;;;7.13;100
44127;BME280;29786;50.798;7.302;2023-04-07T04:57:28;99000;;;7.17;100
44127;BME280;29786;50.798;7.302;2023-04-07T05:02:25;99010;;;7.13;100
44127;BME280;29786;50.798;7.302;2023-04-07T05:08:35;99010;;;7.11;100
44127;BME280;29786;50.798;7.302;2023-04-07T05:13:32;99020;;;7.1;100
44127;BME280;29786;50.798;7.302;2023-04-07T05:18:28;99010;;;7.02;100
44127;BME280;29786;50.798;7.302;2023-04-07T05:23:25;99020;;;6.95;100
44127;BME280;29786;50.798;7.302;2023-04-07T05:29:36;99020;;;6.96;100
44127;BME280;29786;50.798;7.302;2023-04-07T05:34:32;99030;;;7;100
44127;BME280;29786;50.798;7.302;2023-04-07T05:39:29;99030;;;6.91;100
44127;BME280;29786;50.798;7.302;2023-04-07T05:44:25;99020;;;6.88;100
44127;BME280;29786;50.798;7.302;2023-04-07T05:50:36;99030;;;7.02;100
44127;BME280;29786;50.798;7.302;2023-04-07T05:55:32;99030;;;6.95;100
44127;BME280;29786;50.798;7.302;2023-04-07T06:00:29;99040;;;6.93;100
44127;BME280;29786;50.798;7.302;2023-04-07T06:11:36;99050;;;6.86;100
44127;BME280;29786;50.798;7.302;2023-04-07T06:16:33;99060;;;6.93;100
44127;BME280;29786;50.798;7.302;2023-04-07T06:21:29;99060;;;6.91;100
44127;BME280;29786;50.798;7.302;2023-04-07T06:26:26;99060;;;6.95;100
44127;BME280;29786;50.798;7.302;2023-04-07T06:32:36;99060;;;6.99;100
44127;BME280;29786;50.798;7.302;2023-04-07T06:37:33;99060;;;6.96;100
44127;BME280;29786;50.798;7.302;2023-04-07T06:42:29;99070;;;6.88;100
44127;BME280;29786;50.798;7.302;2023-04-07T06:47:26;99080;;;6.84;100
44127;BME280;29786;50.798;7.302;2023-04-07T06:53:37;99070;;;6.83;100
44127;BME280;29786;50.798;7.302;2023-04-07T06:58:34;99080;;;6.77;100
44127;BME280;29786;50.798;7.302;2023-04-07T07:03:30;99090;;;6.81;100
44127;BME280;29786;50.798;7.302;2023-04-07T07:08:27;99090;;;6.85;100
44127;BME280;29786;50.798;7.302;2023-04-07T07:14:37;99100;;;6.86;100
44127;BME280;29786;50.798;7.302;2023-04-07T07:19:33;99110;;;6.92;100
44127;BME280;29786;50.798;7.302;2023-04-07T07:24:30;99100;;;6.94;100
44127;BME280;29786;50.798;7.302;2023-04-07T07:29:27;99120;;;6.92;100
44127;BME280;29786;50.798;7.302;2023-04-07T07:35:43;99110;;;6.87;100
44127;BME280;29786;50.798;7.302;2023-04-07T07:40:34;99120;;;6.94;100
44127;BME280;29786;50.798;7.302;2023-04-07T07:45:30;99120;;;6.86;100
44127;BME280;29786;50.798;7.302;2023-04-07T07:50:27;99120;;;7.04;100
44127;BME280;29786;50.798;7.302;2023-04-07T07:56:38;99120;;;6.95;100
44127;BME280;29786;50.798;7.302;2023-04-07T08:01:34;99130;;;6.94;100
44127;BME280;29786;50.798;7.302;2023-04-07T08:06:31;99120;;;6.84;100
44127;BME280;29786;50.798;7.302;2023-04-07T08:11:27;99140;;;6.96;100
44127;BME280;29786;50.798;7.302;2023-04-07T08:16:24;99150;;;7.11;100
44127;BME280;29786;50.798;7.302;2023-04-07T08:22:34;99150;;;7.08;100
44127;BME280;29786;50.798;7.302;2023-04-07T08:27:31;99140;;;7.08;100
44127;BME280;29786;50.798;7.302;2023-04-07T08:32:43;99160;;;7.28;100
44127;BME280;29786;50.798;7.302;2023-04-07T08:37:24;99160;;;7.18;100
44127;BME280;29786;50.798;7.302;2023-04-07T08:43:35;99170;;;7.32;100
44127;BME280;29786;50.798;7.302;2023-04-07T08:48:31;99180;;;7.28;100
44127;BME280;29786;50.798;7.302;2023-04-07T08:53:29;99180;;;7.29;100
44127;BME280;29786;50.798;7.302;2023-04-07T08:58:24;99180;;;7.36;100
44127;BME280;29786;50.798;7.302;2023-04-07T09:03:29;99190;;;7.45;100
44127;BME280;29786;50.798;7.302;2023-04-07T09:08:25;99190;;;7.44;100
44127;BME280;29786;50.798;7.302;2023-04-07T09:14:36;99190;;;7.49;100
44127;BME280;29786;50.798;7.302;2023-04-07T09:19:33;99190;;;7.78;100
44127;BME280;29786;50.798;7.302;2023-04-07T09:24:29;99190;;;7.64;100
44127;BME280;29786;50.798;7.302;2023-04-07T09:29:26;99200;;;7.55;100
44127;BME280;29786;50.798;7.302;2023-04-07T09:35:49;99200;;;7.46;100
44127;BME280;29786;50.798;7.302;2023-04-07T09:40:33;99200;;;7.55;100
44127;BME280;29786;50.798;7.302;2023-04-07T09:45:30;99200;;;7.4;100
44127;BME280;29786;50.798;7.302;2023-04-07T09:50:30;99210;;;7.45;100
44127;BME280;29786;50.798;7.302;2023-04-07T09:56:37;99210;;;7.78;100
44127;BME280;29786;50.798;7.302;2023-04-07T10:01:33;99210;;;7.77;100
44127;BME280;29786;50.798;7.302;2023-04-07T10:06:30;99210;;;7.75;100
44127;BME280;29786;50.798;7.302;2023-04-07T10:11:26;99210;;;7.91;100
44127;BME280;29786;50.798;7.302;2023-04-07T10:17:37;99220;;;8.13;100
44127;BME280;29786;50.798;7.302;2023-04-07T10:22:33;99230;;;8.2;100
44127;BME280;29786;50.798;7.302;2023-04-07T10:27:33;99230;;;8.27;100
44127;BME280;29786;50.798;7.302;2023-04-07T10:32:26;99230;;;8.32;100
44127;BME280;29786;50.798;7.302;2023-04-07T10:38:37;99240;;;8.68;100
44127;BME280;29786;50.798;7.302;2023-04-07T10:43:36;99240;;;8.6;100
44127;BME280;29786;50.798;7.302;2023-04-07T10:48:30;99240;;;8.95;100
44127;BME280;29786;50.798;7.302;2023-04-07T10:53:27;99250;;;8.78;100
44127;BME280;29786;50.798;7.302;2023-04-07T10:59:38;99250;;;8.52;100
44127;BME280;29786;50.798;7.302;2023-04-07T11:04:35;99250;;;8.6;100
44127;BME280;29786;50.798;7.302;2023-04-07T11:09:30;99230;;;8.18;100
44127;BME280;29786;50.798;7.302;2023-04-07T11:14:27;99250;;;8.06;100
44127;BME280;29786;50.798;7.302;2023-04-07T11:19:23;99260;;;8.31;100
44127;BME280;29786;50.798;7.302;2023-04-07T11:25:35;99260;;;8.18;100
44127;BME280;29786;50.798;7.302;2023-04-07T11:30:31;99240;;;7.93;100
44127;BME280;29786;50.798;7.302;2023-04-07T11:35:27;99270;;;8.13;100
44127;BME280;29786;50.798;7.302;2023-04-07T11:41:44;99270;;;8.14;100
44127;BME280;29786;50.798;7.302;2023-04-07T11:46:35;99270;;;8.26;100
44127;BME280;29786;50.798;7.302;2023-04-07T11:51:31;99260;;;8.07;100
44127;BME280;29786;50.798;7.302;2023-04-07T11:56:28;99280;;;7.89;100
44127;BME280;29786;50.798;7.302;2023-04-07T12:01:24;99290;;;7.98;100
44127;BME280;29786;50.798;7.302;2023-04-07T12:05:07;99290;;;8;100
44127;BME280;29786;50.798;7.302;2023-04-07T12:07:35;99290;;;8.14;100
44127;BME280;29786;50.798;7.302;2023-04-07T12:17:28;99300;;;8.04;100
44127;BME280;29786;50.798;7.302;2023-04-07T12:22:24;99300;;;8.04;100
44127;BME280;29786;50.798;7.302;2023-04-07T12:28:35;99310;;;8.12;100
44127;BME280;29786;50.798;7.302;2023-04-07T12:33:32;99310;;;8.34;100
44127;BME280;29786;50.798;7.302;2023-04-07T12:38:28;99310;;;8.35;100
44127;BME280;29786;50.798;7.302;2023-04-07T12:49:35;99320;;;8.54;100
44127;BME280;29786;50.798;7.302;2023-04-07T12:54:32;99320;;;8.41;100
44127;BME280;29786;50.798;7.302;2023-04-07T12:59:28;99330;;;8.62;100
44127;BME280;29786;50.798;7.302;2023-04-07T13:04:25;99330;;;8.72;100
44127;BME280;29786;50.798;7.302;2023-04-07T13:10:35;99330;;;8.5;100
44127;BME280;29786;50.798;7.302;2023-04-07T13:15:32;99330;;;8.25;100
44127;BME280;29786;50.798;7.302;2023-04-07T13:16:46;99330;;;8.29;100
44127;BME280;29786;50.798;7.302;2023-04-07T13:20:29;99320;;;8.64;100
44127;BME280;29786;50.798;7.302;2023-04-07T13:25:25;99330;;;8.66;100
44127;BME280;29786;50.798;7.302;2023-04-07T13:31:36;99340;;;8.97;100
44127;BME280;29786;50.798;7.302;2023-04-07T13:36:32;99340;;;8.79;100
44127;BME280;29786;50.798;7.302;2023-04-07T13:41:30;99330;;;8.6;100
44127;BME280;29786;50.798;7.302;2023-04-07T13:46:25;99330;;;8.58;100
44127;BME280;29786;50.798;7.302;2023-04-07T13:52:36;99330;;;8.57;100
44127;BME280;29786;50.798;7.302;2023-04-07T13:57:32;99330;;;8.47;100
44127;BME280;29786;50.798;7.302;2023-04-07T14:02:29;99340;;;8.3;100
44127;BME280;29786;50.798;7.302;2023-04-07T14:07:26;99340;;;8.46;100
44127;BME280;29786;50.798;7.302;2023-04-07T14:13:36;99340;;;8.68;100
44127;BME280;29786;50.798;7.302;2023-04-07T14:18:33;99340;;;8.89;100
44127;BME280;29786;50.798;7.302;2023-04-07T14:23:29;99340;;;8.67;100
44127;BME280;29786;50.798;7.302;2023-04-07T14:28:26;99350;;;8.7;100
44127;BME280;29786;50.798;7.302;2023-04-07T14:34:36;99350;;;8.82;100
44127;BME280;29786;50.798;7.302;2023-04-07T14:39:33;99340;;;8.75;100
44127;BME280;29786;50.798;7.302;2023-04-07T14:44:30;99350;;;8.64;100
44127;BME280;29786;50.798;7.302;2023-04-07T14:49:26;99350;;;8.55;100
44127;BME280;29786;50.798;7.302;2023-04-07T14:55:37;99350;;;8.58;100
44127;BME280;29786;50.798;7.302;2023-04-07T15:00:34;99350;;;8.64;100
44127;BME280;29786;50.798;7.302;2023-04-07T15:05:30;99350;;;8.63;100
44127;BME280;29786;50.798;7.302;2023-04-07T15:10:26;99350;;;8.43;100
44127;BME280;29786;50.798;7.302;2023-04-07T15:16:37;99360;;;8.71;100
44127;BME280;29786;50.798;7.302;2023-04-07T15:21:34;99360;;;8.93;100
44127;BME280;29786;50.798;7.302;2023-04-07T15:26:30;99360;;;8.96;100
44127;BME280;29786;50.798;7.302;2023-04-07T15:31:27;99370;;;8.92;100
44127;BME280;29786;50.798;7.302;2023-04-07T15:37:37;99360;;;9.21;100
44127;BME280;29786;50.798;7.302;2023-04-07T15:42:34;99370;;;9.39;100
44127;BME280;29786;50.798;7.302;2023-04-07T15:47:30;99350;;;9.22;100
44127;BME280;29786;50.798;7.302;2023-04-07T15:52:27;99370;;;9.57;100
44127;BME280;29786;50.798;7.302;2023-04-07T15:58:38;99380;;;9.41;100
44127;BME280;29786;50.798;7.302;2023-04-07T16:03:34;99390;;;9.39;100
44127;BME280;29786;50.798;7.302;2023-04-07T16:08:31;99370;;;9.2;100
44127;BME280;29786;50.798;7.302;2023-04-07T16:13:27;99380;;;9.49;100
44127;BME280;29786;50.798;7.302;2023-04-07T16:18:24;99390;;;9.68;100
44127;BME280;29786;50.798;7.302;2023-04-07T16:24:34;99400;;;9.67;100
44127;BME280;29786;50.798;7.302;2023-04-07T16:29:31;99380;;;9.31;100
44127;BME280;29786;50.798;7.302;2023-04-07T16:34:28;99400;;;9.59;100
44127;BME280;29786;50.798;7.302;2023-04-07T16:39:24;99410;;;9.6;100
44127;BME280;29786;50.798;7.302;2023-04-07T16:45:35;99410;;;9.32;100
44127;BME280;29786;50.798;7.302;2023-04-07T16:55:28;99420;;;9.21;100
44127;BME280;29786;50.798;7.302;2023-04-07T17:00:24;99430;;;9.25;100
44127;BME280;29786;50.798;7.302;2023-04-07T17:06:35;99430;;;9.25;100
44127;BME280;29786;50.798;7.302;2023-04-07T17:11:31;99440;;;9.14;100
44127;BME280;29786;50.798;7.302;2023-04-07T17:16:28;99440;;;8.89;100
44127;BME280;29786;50.798;7.302;2023-04-07T17:27:35;99460;;;8.79;100
44127;BME280;29786;50.798;7.302;2023-04-07T17:32:32;99460;;;8.7;100
44127;BME280;29786;50.798;7.302;2023-04-07T17:37:28;99470;;;8.59;100
44127;BME280;29786;50.798;7.302;2023-04-07T17:42:25;99480;;;8.46;100
44127;BME280;29786;50.798;7.302;2023-04-07T17:48:35;99480;;;8.51;100
44127;BME280;29786;50.798;7.302;2023-04-07T17:53:32;99490;;;8.5;100
44127;BME280;29786;50.798;7.302;2023-04-07T17:58:28;99500;;;8.45;100
44127;BME280;29786;50.798;7.302;2023-04-07T18:03:25;99500;;;8.39;100
44127;BME280;29786;50.798;7.302;2023-04-07T18:09:36;99500;;;8.26;100
44127;BME280;29786;50.798;7.302;2023-04-07T18:14:32;99510;;;8.22;100
44127;BME280;29786;50.798;7.302;2023-04-07T18:19:29;99510;;;8.17;100
44127;BME280;29786;50.798;7.302;2023-04-07T18:24:25;99510;;;8.27;100
44127;BME280;29786;50.798;7.302;2023-04-07T18:30:36;99510;;;8.14;100
44127;BME280;29786;50.798;7.302;2023-04-07T18:35:33;99520;;;8.32;100
44127;BME280;29786;50.798;7.302;2023-04-07T18:40:29;99540;;;8.27;100
44127;BME280;29786;50.798;7.302;2023-04-07T18:51:36;99560;;;8.1;100
44127;BME280;29786;50.798;7.302;2023-04-07T18:56:33;99560;;;8.04;100
44127;BME280;29786;50.798;7.302;2023-04-07T19:01:29;99570;;;7.99;100
44127;BME280;29786;50.798;7.302;2023-04-07T19:06:26;99570;;;7.98;100
44127;BME280;29786;50.798;7.302;2023-04-07T19:12:37;99570;;;7.99;100
44127;BME280;29786;50.798;7.302;2023-04-07T19:17:33;99580;;;8.06;100
44127;BME280;29786;50.798;7.302;2023-04-07T19:22:30;99580;;;8.08;100
44127;BME280;29786;50.798;7.302;2023-04-07T19:27:26;99580;;;7.94;100
44127;BME280;29786;50.798;7.302;2023-04-07T19:33:37;99590;;;8;100
44127;BME280;29786;50.798;7.302;2023-04-07T19:38:33;99590;;;8;100
44127;BME280;29786;50.798;7.302;2023-04-07T19:43:30;99590;;;7.92;100
44127;BME280;29786;50.798;7.302;2023-04-07T19:48:26;99590;;;7.9;100
44127;BME280;29786;50.798;7.302;2023-04-07T19:54:37;99600;;;7.88;100
44127;BME280;29786;50.798;7.302;2023-04-07T19:59:33;99610;;;7.82;100
44127;BME280;29786;50.798;7.302;2023-04-07T20:04:30;99610;;;7.76;100
44127;BME280;29786;50.798;7.302;2023-04-07T20:09:27;99610;;;7.66;100
44127;BME280;29786;50.798;7.302;2023-04-07T20:15:37;99620;;;7.6;100
44127;BME280;29786;50.798;7.302;2023-04-07T20:20:34;99610;;;7.49;100
44127;BME280;29786;50.798;7.302;2023-04-07T20:25:30;99620;;;7.48;100
44127;BME280;29786;50.798;7.302;2023-04-07T20:30:27;99620;;;7.55;100
44127;BME280;29786;50.798;7.302;2023-04-07T20:36:37;99630;;;7.62;100
44127;BME280;29786;50.798;7.302;2023-04-07T20:41:34;99630;;;7.62;100
44127;BME280;29786;50.798;7.302;2023-04-07T20:46:31;99620;;;7.36;100
44127;BME280;29786;50.798;7.302;2023-04-07T20:51:27;99640;;;7.34;100
44127;BME280;29786;50.798;7.302;2023-04-07T20:57:38;99660;;;7.28;100
44127;BME280;29786;50.798;7.302;2023-04-07T21:02:34;99660;;;7.4;100
44127;BME280;29786;50.798;7.302;2023-04-07T21:07:31;99640;;;7.45;100
44127;BME280;29786;50.798;7.302;2023-04-07T21:12:27;99660;;;7.76;100
44127;BME280;29786;50.798;7.302;2023-04-07T21:17:24;99670;;;7.8;100
44127;BME280;29786;50.798;7.302;2023-04-07T21:23:35;99660;;;7.77;100
44127;BME280;29786;50.798;7.302;2023-04-07T21:27:27;99670;;;7.72;100
44127;BME280;29786;50.798;7.302;2023-04-07T21:33:36;99660;;;7.73;100
44127;BME280;29786;50.798;7.302;2023-04-07T21:38:32;99660;;;7.77;100
44127;BME280;29786;50.798;7.302;2023-04-07T21:43:29;99660;;;7.63;100
44127;BME280;29786;50.798;7.302;2023-04-07T21:54:36;99670;;;7.5;100
44127;BME280;29786;50.798;7.302;2023-04-07T21:59:33;99660;;;7.44;100
44127;BME280;29786;50.798;7.302;2023-04-07T22:04:29;99660;;;7.51;100
44127;BME280;29786;50.798;7.302;2023-04-07T22:09:26;99660;;;7.49;100
44127;BME280;29786;50.798;7.302;2023-04-07T22:15:36;99670;;;7.5;100
44127;BME280;29786;50.798;7.302;2023-04-07T22:20:33;99660;;;7.52;100
44127;BME280;29786;50.798;7.302;2023-04-07T22:25:29;99670;;;7.49;100
44127;BME280;29786;50.798;7.302;2023-04-07T22:30:26;99680;;;7.45;100
44127;BME280;29786;50.798;7.302;2023-04-07T22:36:37;99680;;;7.42;100
44127;BME280;29786;50.798;7.302;2023-04-07T22:41:33;99680;;;7.34;100
44127;BME280;29786;50.798;7.302;2023-04-07T22:46:30;99680;;;7.36;100
44127;BME280;29786;50.798;7.302;2023-04-07T22:51:26;99680;;;7.32;100
44127;BME280;29786;50.798;7.302;2023-04-07T22:57:37;99680;;;7.33;100
44127;BME280;29786;50.798;7.302;2023-04-07T23:02:33;99690;;;7.21;100
44127;BME280;29786;50.798;7.302;2023-04-07T23:07:30;99690;;;7.32;100
44127;BME280;29786;50.798;7.302;2023-04-07T23:12:26;99690;;;7.37;100
44127;BME280;29786;50.798;7.302;2023-04-07T23:17:23;99700;;;7.51;100
44127;BME280;29786;50.798;7.302;2023-04-07T23:23:34;99700;;;7.5;100
44127;BME280;29786;50.798;7.302;2023-04-07T23:28:30;99710;;;7.56;100
44127;BME280;29786;50.798;7.302;2023-04-07T23:33:28;99710;;;7.52;100
44127;BME280;29786;50.798;7.302;2023-04-07T23:39:37;99720;;;7.55;100
44127;BME280;29786;50.798;7.302;2023-04-07T23:44:34;99710;;;7.69;100
44127;BME280;29786;50.798;7.302;2023-04-07T23:49:30;99700;;;7.47;100
44127;BME280;29786;50.798;7.302;2023-04-07T23:54:27;99720;;;7.57;100
44127;BME280;29786;50.798;7.302;2023-04-07T23:59:23;99730;;;7.65;100
